Terminal Aerodrome Forecast
Issued by NWS

Home | Current Version | Previous Version | Graphics & Text | Print | Product List | Glossary On
Versions: 1 2 3 4 5 6 7 8 9 10 11 12 13
000
FTUS43 KICT 200520
TAFRSL
TAF
KRSL 200520Z 2006/2106 16011KT P6SM SCT250
     FM201500 21016G24KT P6SM SCT090=

USA.gov is the U.S. government's official web portal to all federal, state and local government web resources and services.